Time;durP1;ratioP1;P1;durP2;ratioP2;P2;SDS_P1;SDS_P2;PMS_P1;PMS_P2;Temp;Humidity;BMP_temperature;BMP_pressure;BME280_temperature;BME280_humidity;BME280_pressure;Samples;Min_cycle;Max_cycle;Signal;HPM_P1;HPM_P2
2023/12/30 00:02:15;;;;;;;;;3.00;3.00;;;;;21.44;54.70;99807.46;111102;1269;20027;-31
2023/12/30 00:04:42;;;;;;;;;3.00;3.00;;;;;21.46;54.99;99807.65;111120;1269;19556;-31
2023/12/30 00:07:09;;;;;;;;;3.00;3.00;;;;;21.46;54.84;99801.33;111254;1269;18872;-31
2023/12/30 00:09:37;;;;;;;;;3.00;3.00;;;;;21.43;54.93;99793.48;111113;1254;20041;-31
2023/12/30 00:12:04;;;;;;;;;4.00;3.00;;;;;21.40;54.96;99795.10;111254;1254;20841;-31
2023/12/30 00:14:32;;;;;;;;;3.00;3.00;;;;;21.41;54.71;99791.01;111181;1255;19959;-31
2023/12/30 00:16:59;;;;;;;;;3.00;3.00;;;;;21.41;54.80;99786.84;111387;1269;18654;-31
2023/12/30 00:19:27;;;;;;;;;3.00;3.00;;;;;21.40;55.00;99788.23;111269;1256;20874;-31
2023/12/30 00:21:54;;;;;;;;;3.00;3.00;;;;;21.43;54.64;99784.44;111379;1269;18187;-31
2023/12/30 00:24:21;;;;;;;;;3.00;3.00;;;;;21.44;54.42;99780.27;111278;1254;20029;-31
2023/12/30 00:26:48;;;;;;;;;3.00;3.00;;;;;21.44;54.45;99777.83;111455;1269;20827;-31
2023/12/30 00:29:16;;;;;;;;;3.00;3.00;;;;;21.41;54.71;99771.88;111059;1269;19551;-31
2023/12/30 00:31:43;;;;;;;;;4.00;3.00;;;;;21.38;54.95;99770.30;111211;1254;20196;-31
2023/12/30 00:34:10;;;;;;;;;4.00;3.00;;;;;21.39;54.74;99768.64;111164;1254;20741;-31
2023/12/30 00:36:38;;;;;;;;;3.00;3.00;;;;;21.34;54.87;99771.27;111115;1262;19502;-31
2023/12/30 00:39:05;;;;;;;;;3.00;3.00;;;;;21.36;54.33;99767.92;111249;1269;20032;-31
2023/12/30 00:41:34;;;;;;;;;3.00;3.00;;;;;21.33;54.48;99773.36;111235;1254;22093;-31
2023/12/30 00:44:01;;;;;;;;;1.00;1.00;;;;;21.32;54.40;99777.80;111093;1254;19599;-31
2023/12/30 00:46:28;;;;;;;;;3.00;3.00;;;;;21.33;54.49;99776.73;111114;1261;21191;-31
2023/12/30 00:48:56;;;;;;;;;1.00;1.00;;;;;21.36;54.25;99773.54;111152;1255;20823;-31
2023/12/30 00:51:23;;;;;;;;;3.50;3.50;;;;;21.32;53.93;99768.10;111082;1254;19654;-31
2023/12/30 00:53:50;;;;;;;;;;;;;;;21.32;54.21;99766.46;111215;1269;20041;-31
2023/12/30 00:56:18;;;;;;;;;6.00;4.00;;;;;21.33;54.21;99758.71;111127;1256;22048;-31
2023/12/30 00:58:45;;;;;;;;;1.00;1.00;;;;;21.33;54.08;99756.09;111249;1256;19336;-31
2023/12/30 01:01:12;;;;;;;;;3.00;3.00;;;;;21.39;53.77;99753.94;111157;1254;18609;-31
2023/12/30 01:03:40;;;;;;;;;3.00;3.00;;;;;21.34;53.94;99753.95;111256;1256;20855;-31
2023/12/30 01:06:07;;;;;;;;;3.00;2.00;;;;;21.34;53.79;99752.33;111186;1254;19652;-31
2023/12/30 01:08:34;;;;;;;;;4.00;3.00;;;;;21.33;53.70;99763.08;111099;1254;20189;-31
2023/12/30 01:11:02;;;;;;;;;3.00;3.00;;;;;21.27;53.72;99757.16;110716;1255;426848;-31
2023/12/30 01:13:30;;;;;;;;;2.00;2.00;;;;;21.28;53.54;99754.42;111088;1254;19656;-31
2023/12/30 01:15:57;;;;;;;;;3.00;3.00;;;;;21.27;53.71;99743.88;111215;1254;21703;-31
2023/12/30 01:18:25;;;;;;;;;1.00;1.00;;;;;21.24;53.47;99748.17;111183;1269;19522;-31
2023/12/30 01:20:52;;;;;;;;;3.00;3.00;;;;;21.25;53.75;99739.98;111092;1254;19808;-31
2023/12/30 01:23:19;;;;;;;;;2.00;2.00;;;;;21.24;53.77;99727.54;111262;1254;20118;-32
2023/12/30 01:25:47;;;;;;;;;3.00;3.00;;;;;21.25;53.54;99725.50;111130;1256;20837;-30
2023/12/30 01:28:14;;;;;;;;;3.00;3.00;;;;;21.24;53.57;99721.54;111359;1269;18679;-31
2023/12/30 01:30:41;;;;;;;;;3.00;3.00;;;;;21.24;53.45;99715.29;111134;1269;19988;-31
2023/12/30 01:33:09;;;;;;;;;1.00;1.00;;;;;21.24;53.31;99718.76;111424;1255;20854;-31
2023/12/30 01:35:36;;;;;;;;;3.00;3.00;;;;;21.23;53.44;99711.70;111052;1269;18173;-31
2023/12/30 01:38:03;;;;;;;;;3.00;2.00;;;;;21.24;53.33;99706.73;111346;1254;19019;-31
2023/12/30 01:40:30;;;;;;;;;3.00;1.00;;;;;21.23;53.26;99702.27;111139;1254;20900;-31
2023/12/30 01:43:02;;;;;;;;;3.00;3.00;;;;;21.24;53.36;99693.66;111118;1254;20905;-31
2023/12/30 01:45:29;;;;;;;;;3.00;3.00;;;;;21.24;53.47;99691.20;111443;1254;20228;-31
2023/12/30 01:47:57;;;;;;;;;3.00;3.00;;;;;21.24;53.39;99684.50;111059;1254;20824;-31
2023/12/30 01:50:24;;;;;;;;;3.50;3.00;;;;;21.24;53.18;99680.30;111423;1254;19671;-31
2023/12/30 01:52:51;;;;;;;;;3.00;3.00;;;;;21.24;53.15;99677.41;111095;1253;19926;-31
2023/12/30 01:55:19;;;;;;;;;3.00;3.00;;;;;21.23;53.11;99677.27;111499;1254;20847;-31
2023/12/30 01:57:46;;;;;;;;;1.00;1.00;;;;;21.23;53.12;99672.59;111123;1261;20680;-31
2023/12/30 02:00:13;;;;;;;;;1.00;1.00;;;;;21.23;52.90;99661.54;111558;1261;19547;-30
2023/12/30 02:02:41;;;;;;;;;3.00;3.00;;;;;21.22;52.91;99657.67;111214;1256;20898;-31
2023/12/30 02:05:08;;;;;;;;;2.00;2.00;;;;;21.23;52.95;99651.58;111072;1256;19606;-31
2023/12/30 02:07:35;;;;;;;;;1.00;1.00;;;;;21.22;53.17;99647.66;111318;1269;18728;-31
2023/12/30 02:10:03;;;;;;;;;3.00;3.00;;;;;21.22;52.98;99643.57;111040;1269;21142;-32
2023/12/30 02:12:30;;;;;;;;;1.00;1.00;;;;;21.21;52.89;99640.24;111364;1262;19586;-31
2023/12/30 02:14:57;;;;;;;;;1.00;1.00;;;;;21.22;52.90;99632.46;111121;1269;18645;-31
2023/12/30 02:17:25;;;;;;;;;1.00;1.00;;;;;21.24;52.71;99629.10;111420;1269;19406;-31
2023/12/30 02:19:52;;;;;;;;;1.00;1.00;;;;;21.23;52.81;99622.58;111252;1269;18153;-31
2023/12/30 02:22:19;;;;;;;;;1.00;1.00;;;;;21.23;52.63;99615.13;111568;1262;19931;-31
2023/12/30 02:24:46;;;;;;;;;1.00;1.00;;;;;21.22;52.91;99612.20;111320;1269;19231;-31
2023/12/30 02:27:14;;;;;;;;;3.00;3.00;;;;;21.22;52.83;99608.01;111449;1256;19618;-31
2023/12/30 02:29:41;;;;;;;;;3.00;1.00;;;;;21.21;52.58;99607.34;111296;1254;21168;-31
2023/12/30 02:32:08;;;;;;;;;3.00;3.00;;;;;21.22;52.60;99596.57;111021;1269;19725;-31
2023/12/30 02:34:36;;;;;;;;;1.00;1.00;;;;;21.20;52.86;99587.87;111278;1255;19673;-31
2023/12/30 02:37:03;;;;;;;;;1.00;1.00;;;;;21.20;52.78;99584.38;111103;1269;19918;-31
2023/12/30 02:39:30;;;;;;;;;1.00;1.00;;;;;21.20;52.70;99584.42;111403;1254;19350;-31
2023/12/30 02:41:57;;;;;;;;;3.00;3.00;;;;;21.20;52.65;99581.05;111143;1256;19638;-31
2023/12/30 02:44:25;;;;;;;;;3.00;3.00;;;;;21.20;52.66;99577.63;111485;1262;21471;-31
2023/12/30 02:46:52;;;;;;;;;1.00;1.00;;;;;21.21;52.64;99571.17;111249;1254;20827;-31
2023/12/30 02:49:19;;;;;;;;;3.00;3.00;;;;;21.21;52.52;99575.05;111153;1254;19696;-31
2023/12/30 02:51:46;;;;;;;;;1.00;1.00;;;;;21.18;52.58;99568.51;111371;1269;18783;-31
2023/12/30 02:54:14;;;;;;;;;3.00;3.00;;;;;21.18;52.53;99561.10;111176;1269;19383;-31
2023/12/30 02:56:41;;;;;;;;;1.00;1.00;;;;;21.18;52.71;99560.02;111236;1269;18597;-31
2023/12/30 02:59:08;;;;;;;;;2.00;1.00;;;;;21.18;52.51;99559.20;111066;1254;20256;-31
2023/12/30 03:01:38;;;;;;;;;3.00;3.00;;;;;21.18;52.45;99554.02;111223;1262;20750;-31
2023/12/30 03:04:05;;;;;;;;;1.00;1.00;;;;;21.20;52.48;99555.30;111194;1254;19469;-31
2023/12/30 03:06:32;;;;;;;;;1.00;1.00;;;;;21.20;52.25;99552.09;111199;1254;20233;-31
2023/12/30 03:09:00;;;;;;;;;1.00;1.00;;;;;21.18;52.40;99551.23;111163;1269;19380;-31
2023/12/30 03:11:27;;;;;;;;;3.00;1.00;;;;;21.19;52.39;99555.41;111165;1254;19839;-31
2023/12/30 03:13:55;;;;;;;;;3.00;3.00;;;;;21.18;52.24;99571.02;111158;1254;21155;-31
2023/12/30 03:16:22;;;;;;;;;3.00;3.00;;;;;21.19;52.25;99585.70;111224;1269;19379;-31
2023/12/30 03:18:49;;;;;;;;;1.00;1.00;;;;;21.19;52.39;99691.86;111216;1254;19441;-31
2023/12/30 03:21:16;;;;;;;;;1.00;1.00;;;;;21.20;52.20;99721.70;111297;1262;21239;-31
2023/12/30 03:23:44;;;;;;;;;1.00;1.00;;;;;21.19;52.18;99712.11;111097;1254;20838;-31
2023/12/30 03:26:11;;;;;;;;;1.00;1.00;;;;;21.20;52.33;99704.21;111085;1256;19599;-31
2023/12/30 03:28:38;;;;;;;;;1.00;1.00;;;;;21.20;52.09;99695.65;111153;1262;21217;-31
2023/12/30 03:31:07;;;;;;;;;1.00;1.00;;;;;21.20;52.14;99685.09;111122;1269;19415;-31
2023/12/30 03:33:34;;;;;;;;;1.00;1.00;;;;;21.20;52.18;99691.68;111135;1254;19590;-31
2023/12/30 03:36:01;;;;;;;;;1.00;1.00;;;;;21.19;51.94;99699.33;111118;1254;20122;-31
2023/12/30 03:38:28;;;;;;;;;1.00;1.00;;;;;21.23;52.12;99697.10;111193;1269;19232;-31
2023/12/30 03:40:57;;;;;;;;;1.00;1.00;;;;;21.19;51.87;99676.55;111153;1254;19624;-31
2023/12/30 03:43:24;;;;;;;;;1.00;1.00;;;;;21.18;52.16;99675.31;111141;1261;21036;-31
2023/12/30 03:45:51;;;;;;;;;1.00;1.00;;;;;21.16;52.19;99672.57;111130;1254;20984;-31
2023/12/30 03:48:19;;;;;;;;;3.00;3.00;;;;;21.16;51.88;99668.71;111182;1269;18225;-31
2023/12/30 03:50:47;;;;;;;;;1.00;1.00;;;;;21.17;52.20;99674.69;111144;1254;20014;-31
2023/12/30 03:53:14;;;;;;;;;3.00;3.00;;;;;21.15;52.01;99675.91;111174;1269;20933;-31
2023/12/30 03:55:41;;;;;;;;;1.00;1.00;;;;;21.15;51.85;99685.66;111230;1256;19575;-31
2023/12/30 03:58:08;;;;;;;;;2.33;2.33;;;;;21.16;52.04;99682.98;111280;1254;20078;-31
2023/12/30 04:00:36;;;;;;;;;1.00;1.00;;;;;21.15;51.93;99690.45;111264;1254;20816;-31
2023/12/30 04:03:03;;;;;;;;;1.00;1.00;;;;;21.16;52.14;99707.00;111137;1261;19759;-31
2023/12/30 04:05:31;;;;;;;;;1.00;1.00;;;;;21.15;51.88;99712.41;111266;1269;18849;-31
2023/12/30 04:07:58;;;;;;;;;1.00;1.00;;;;;21.15;51.91;99714.80;111031;1254;20909;-31
2023/12/30 04:10:25;;;;;;;;;1.00;1.00;;;;;21.15;52.16;99719.10;111234;1254;19485;-31
2023/12/30 04:12:52;;;;;;;;;1.00;1.00;;;;;21.14;52.08;99719.98;111157;1254;20427;-31
2023/12/30 04:15:20;;;;;;;;;1.00;1.00;;;;;21.15;51.91;99718.29;111079;1254;22114;-31
2023/12/30 04:17:47;;;;;;;;;2.00;2.00;;;;;21.14;52.23;99721.84;111205;1253;18167;-31
2023/12/30 04:20:14;;;;;;;;;1.00;1.00;;;;;21.15;51.81;99720.03;111224;1254;20119;-31
2023/12/30 04:22:42;;;;;;;;;1.00;1.00;;;;;21.15;51.74;99724.61;111288;1254;21123;-31
2023/12/30 04:25:09;;;;;;;;;3.00;3.00;;;;;21.14;51.72;99730.94;111223;1269;18857;-31
2023/12/30 04:27:36;;;;;;;;;1.00;1.00;;;;;21.13;51.94;99737.81;111290;1254;20116;-31
2023/12/30 04:30:03;;;;;;;;;1.00;1.00;;;;;21.13;51.83;99739.73;111103;1269;20655;-31
2023/12/30 04:32:31;;;;;;;;;1.00;1.00;;;;;21.12;51.92;99746.54;111264;1261;19506;-31
2023/12/30 04:34:58;;;;;;;;;1.00;1.00;;;;;21.12;51.80;99744.52;111120;1254;21115;-31
2023/12/30 04:37:25;;;;;;;;;1.00;1.00;;;;;21.13;51.90;99739.45;111045;1269;19390;-31
2023/12/30 04:39:53;;;;;;;;;1.00;1.00;;;;;21.13;51.69;99737.93;111112;1256;19637;-31
2023/12/30 04:42:20;;;;;;;;;1.00;1.00;;;;;21.13;51.67;99736.63;111168;1254;21206;-31
2023/12/30 04:44:47;;;;;;;;;3.00;1.00;;;;;21.12;51.66;99736.64;111163;1269;19386;-31
2023/12/30 04:47:15;;;;;;;;;1.00;1.00;;;;;21.12;51.58;99741.96;111060;1254;18816;-31
2023/12/30 04:49:42;;;;;;;;;;;;;;;21.12;51.69;99742.40;111293;1254;20073;-31
2023/12/30 04:52:09;;;;;;;;;1.00;1.00;;;;;21.11;51.83;99747.80;111178;1269;20585;-31
2023/12/30 04:54:37;;;;;;;;;1.00;1.00;;;;;21.12;51.64;99744.87;111319;1255;19461;-31
2023/12/30 04:57:04;;;;;;;;;1.00;1.00;;;;;21.11;51.61;99749.45;111188;1254;20103;-31
2023/12/30 04:59:32;;;;;;;;;1.00;1.00;;;;;21.12;51.66;99748.40;111289;1254;22169;-31
2023/12/30 05:01:59;;;;;;;;;1.00;1.00;;;;;21.13;51.74;99748.06;111258;1269;18153;-31
2023/12/30 05:04:26;;;;;;;;;1.00;1.00;;;;;21.13;51.45;99755.23;111240;1269;20499;-31
2023/12/30 05:06:54;;;;;;;;;1.00;1.00;;;;;21.14;51.59;99755.13;111405;1254;20833;-31
2023/12/30 05:09:21;;;;;;;;;1.00;1.00;;;;;21.12;51.59;99746.12;111051;1262;19541;-31
2023/12/30 05:11:49;;;;;;;;;1.00;1.00;;;;;21.11;51.54;99747.42;111407;1256;18647;-31
2023/12/30 05:14:18;;;;;;;;;1.00;1.00;;;;;21.11;51.56;99752.06;111012;1254;20807;-30
2023/12/30 05:16:45;;;;;;;;;1.00;1.00;;;;;21.11;51.71;99756.14;111139;1254;19939;-30
2023/12/30 05:19:13;;;;;;;;;1.00;1.00;;;;;21.12;51.53;99757.33;111100;1269;19825;-30
2023/12/30 05:21:40;;;;;;;;;1.00;1.00;;;;;21.11;51.53;99758.88;111239;1254;20822;-31
2023/12/30 05:24:08;;;;;;;;;1.00;1.00;;;;;21.13;51.37;99749.30;111118;1254;19606;-31
2023/12/30 05:26:35;;;;;;;;;1.00;1.00;;;;;21.14;51.52;99738.73;111310;1269;18765;-30
2023/12/30 05:29:02;;;;;;;;;1.00;1.00;;;;;21.12;51.58;99740.13;111169;1269;19380;-30
2023/12/30 05:31:30;;;;;;;;;1.00;1.00;;;;;21.09;51.59;99745.34;111343;1262;19749;-30
2023/12/30 05:33:57;;;;;;;;;1.00;1.00;;;;;21.09;51.69;99750.41;111117;1256;20035;-30
2023/12/30 05:36:24;;;;;;;;;2.00;2.00;;;;;21.09;51.47;99746.75;111438;1254;21169;-30
2023/12/30 05:38:51;;;;;;;;;1.00;1.00;;;;;21.10;51.35;99754.64;111063;1269;18131;-30
2023/12/30 05:41:19;;;;;;;;;3.00;3.00;;;;;21.09;51.35;99761.84;111501;1262;19922;-30
2023/12/30 05:43:46;;;;;;;;;1.00;1.00;;;;;21.09;51.39;99771.60;111129;1253;20842;-30
2023/12/30 05:46:13;;;;;;;;;1.00;1.00;;;;;21.09;51.34;99778.94;111398;1254;18138;-30
2023/12/30 05:48:41;;;;;;;;;1.00;1.00;;;;;21.09;51.36;99783.46;111162;1269;19874;-30
2023/12/30 05:51:08;;;;;;;;;1.00;1.00;;;;;21.09;51.66;99784.77;111370;1254;20716;-30
2023/12/30 05:53:36;;;;;;;;;1.00;1.00;;;;;21.09;51.45;99791.46;111229;1254;19582;-30
2023/12/30 05:56:03;;;;;;;;;1.00;1.00;;;;;21.09;51.23;99796.98;111044;1269;18588;-29
2023/12/30 05:58:30;;;;;;;;;1.00;1.00;;;;;21.08;51.38;99796.77;111229;1269;19512;-30
2023/12/30 06:00:58;;;;;;;;;1.67;1.67;;;;;21.09;51.39;99790.98;111069;1269;18178;-29
2023/12/30 06:03:25;;;;;;;;;1.00;1.00;;;;;21.08;51.26;99789.04;111369;1254;20092;-30
2023/12/30 06:05:52;;;;;;;;;1.00;1.00;;;;;21.07;51.40;99793.77;111073;1254;21886;-31
2023/12/30 06:08:20;;;;;;;;;1.00;1.00;;;;;21.09;51.46;99786.67;111396;1269;18186;-31
2023/12/30 06:10:51;;;;;;;;;1.00;1.00;;;;;21.10;51.34;99789.22;111120;1254;20041;-31
2023/12/30 06:13:18;;;;;;;;;1.00;1.00;;;;;21.11;51.41;99789.58;111070;1269;19535;-31
2023/12/30 06:15:45;;;;;;;;;1.00;1.00;;;;;21.10;51.40;99785.57;111294;1269;18494;-31
2023/12/30 06:18:13;;;;;;;;;1.00;1.00;;;;;21.08;51.39;99784.34;111058;1254;20073;-31
2023/12/30 06:20:40;;;;;;;;;1.00;1.00;;;;;21.07;51.27;99789.86;111340;1254;21982;-31
2023/12/30 06:23:07;;;;;;;;;1.00;1.00;;;;;21.07;51.19;99795.42;111128;1269;18131;-31
2023/12/30 06:25:35;;;;;;;;;1.00;1.00;;;;;21.07;51.16;99789.59;111486;1253;20019;-30
2023/12/30 06:28:02;;;;;;;;;3.00;3.00;;;;;21.08;51.26;99788.77;111195;1269;20692;-31
2023/12/30 06:30:29;;;;;;;;;3.00;2.00;;;;;21.08;50.98;99784.46;111177;1254;18642;-31
2023/12/30 06:32:58;;;;;;;;;1.00;1.00;;;;;21.08;51.29;99768.99;111313;1261;19945;-31
2023/12/30 06:35:26;;;;;;;;;1.00;1.00;;;;;21.09;51.10;99775.35;111259;1254;20736;-31
2023/12/30 06:37:54;;;;;;;;;1.00;1.00;;;;;21.07;51.38;99787.85;111076;1269;19528;-31
2023/12/30 06:40:21;;;;;;;;;3.00;3.00;;;;;21.07;51.21;99799.83;111313;1254;18738;-31
2023/12/30 06:42:48;;;;;;;;;3.00;3.00;;;;;21.08;51.18;99808.27;111162;1254;22004;-31
2023/12/30 06:45:16;;;;;;;;;1.00;1.00;;;;;21.07;51.17;99810.50;111246;1269;19487;-31
2023/12/30 06:47:43;;;;;;;;;3.00;3.00;;;;;21.07;51.10;99807.41;111066;1254;20023;-31
2023/12/30 06:50:10;;;;;;;;;1.00;1.00;;;;;21.06;51.23;99813.36;111273;1254;20813;-31
2023/12/30 06:52:38;;;;;;;;;1.00;1.00;;;;;21.06;51.19;99812.05;111116;1261;20528;-31
2023/12/30 06:55:06;;;;;;;;;2.00;2.00;;;;;21.07;51.24;99813.44;111117;1269;18606;-31
2023/12/30 06:57:34;;;;;;;;;3.00;1.00;;;;;21.07;51.16;99805.50;111223;1254;20800;-31
2023/12/30 07:00:01;;;;;;;;;3.00;3.00;;;;;21.06;51.24;99812.27;111275;1254;19434;-31
2023/12/30 07:02:29;;;;;;;;;3.00;1.00;;;;;21.07;51.01;99816.55;111125;1269;19115;-31
2023/12/30 07:04:56;;;;;;;;;1.00;1.00;;;;;21.07;51.11;99820.63;111193;1254;20888;-31
2023/12/30 07:07:23;;;;;;;;;3.00;1.00;;;;;21.09;50.75;99827.57;111119;1254;18159;-31
2023/12/30 07:09:51;;;;;;;;;1.00;1.00;;;;;21.07;50.85;99829.56;111113;1254;20004;-31
2023/12/30 07:12:18;;;;;;;;;1.00;1.00;;;;;21.11;50.88;99834.90;111061;1254;22020;-31
2023/12/30 07:14:45;;;;;;;;;3.00;3.00;;;;;21.15;50.51;99844.54;111358;1269;18332;-31
2023/12/30 07:17:13;;;;;;;;;2.00;2.00;;;;;21.13;50.91;99845.64;111131;1254;20359;-31
2023/12/30 07:19:40;;;;;;;;;3.00;3.00;;;;;21.15;51.16;99848.95;111402;1254;20765;-31
2023/12/30 07:22:07;;;;;;;;;3.00;3.00;;;;;21.13;51.87;99855.98;111203;1269;18849;-31
2023/12/30 07:24:34;;;;;;;;;1.00;1.00;;;;;21.16;52.50;99864.02;111181;1263;20009;-31
2023/12/30 07:27:02;;;;;;;;;3.00;3.00;;;;;21.18;52.26;99866.44;111259;1262;20859;-31
2023/12/30 07:29:29;;;;;;;;;1.00;1.00;;;;;21.21;52.38;99869.84;111117;1254;18157;-31
2023/12/30 07:31:56;;;;;;;;;3.00;3.00;;;;;21.19;52.68;99865.61;111315;1269;18623;-31
2023/12/30 07:34:24;;;;;;;;;;;;;;;21.18;52.62;99871.23;111263;1254;20848;-31
2023/12/30 07:36:52;;;;;;;;;3.00;3.00;;;;;21.19;52.37;99878.23;111051;1269;19445;-31
2023/12/30 07:39:19;;;;;;;;;1.00;1.00;;;;;21.20;52.45;99886.02;111174;1254;21487;-30
2023/12/30 07:41:46;;;;;;;;;1.00;1.00;;;;;21.22;52.47;99881.00;111045;1269;19427;-30
2023/12/30 07:44:14;;;;;;;;;3.00;3.00;;;;;21.20;52.56;99873.28;111228;1254;19675;-30
2023/12/30 07:46:41;;;;;;;;;1.00;1.00;;;;;21.16;52.79;99876.77;111082;1261;18589;-31
2023/12/30 07:49:10;;;;;;;;;1.00;1.00;;;;;21.20;52.61;99884.08;111189;1254;21906;-30
2023/12/30 07:51:37;;;;;;;;;1.00;1.00;;;;;21.25;52.72;99874.82;111229;1269;18187;-30
2023/12/30 07:54:05;;;;;;;;;3.00;2.00;;;;;21.27;52.65;99876.69;111079;1269;18793;-30
2023/12/30 07:56:32;;;;;;;;;1.00;1.00;;;;;21.23;52.67;99878.16;111037;1254;20822;-31
2023/12/30 07:59:00;;;;;;;;;1.00;1.00;;;;;21.19;52.62;99887.34;111137;1254;19605;-30
2023/12/30 08:01:27;;;;;;;;;3.00;1.00;;;;;21.16;52.46;99889.89;111136;1262;19950;-30
2023/12/30 08:03:55;;;;;;;;;1.00;1.00;;;;;21.14;52.23;99893.79;111120;1254;20881;-30
2023/12/30 08:06:22;;;;;;;;;1.00;1.00;;;;;21.16;51.73;99893.31;111154;1269;18738;-31
2023/12/30 08:08:49;;;;;;;;;1.00;1.00;;;;;21.17;51.33;99902.13;111115;1253;20102;-30
2023/12/30 08:11:17;;;;;;;;;1.00;1.00;;;;;21.23;51.36;99905.39;111292;1255;21985;-30
2023/12/30 08:13:44;;;;;;;;;1.00;1.00;;;;;21.23;51.30;99910.58;111270;1269;18164;-31
2023/12/30 08:16:11;;;;;;;;;2.00;2.00;;;;;21.21;50.92;99901.59;111113;1269;21068;-31
2023/12/30 08:18:39;;;;;;;;;1.00;1.00;;;;;21.25;51.47;99903.40;111299;1269;21875;-30
2023/12/30 08:21:06;;;;;;;;;1.00;1.00;;;;;21.32;51.84;99908.21;111131;1269;18189;-30
2023/12/30 08:23:33;;;;;;;;;1.00;1.00;;;;;21.33;53.04;99915.88;111344;1269;18657;-30
2023/12/30 08:26:01;;;;;;;;;1.00;1.00;;;;;21.28;54.04;99919.16;111188;1254;19392;-30
2023/12/30 08:28:28;;;;;;;;;1.00;1.00;;;;;21.34;54.74;99912.44;111088;1254;19911;-31
2023/12/30 08:30:57;;;;;;;;;1.00;1.00;;;;;21.35;55.13;99915.15;111066;1256;20082;-31
2023/12/30 08:33:24;;;;;;;;;3.00;1.00;;;;;21.36;54.86;99912.20;111313;1254;21951;-30
2023/12/30 08:35:51;;;;;;;;;1.00;1.00;;;;;21.35;54.60;99920.65;111200;1264;20762;-30
2023/12/30 08:38:19;;;;;;;;;1.00;1.00;;;;;21.38;54.57;99919.26;111453;1269;18842;-30
2023/12/30 08:40:46;;;;;;;;;3.00;3.00;;;;;21.38;54.16;99917.89;111204;1269;19489;-30
2023/12/30 08:43:13;;;;;;;;;1.00;1.00;;;;;21.37;54.51;99918.02;111032;1254;20854;-30
2023/12/30 08:45:40;;;;;;;;;1.00;1.00;;;;;21.37;54.27;99910.05;111115;1254;20052;-30
2023/12/30 08:48:08;;;;;;;;;1.00;1.00;;;;;21.40;54.50;99920.32;111138;1262;20737;-30
2023/12/30 08:50:35;;;;;;;;;3.00;1.00;;;;;21.39;54.69;99932.10;111178;1254;20811;-31
2023/12/30 08:53:03;;;;;;;;;1.00;1.00;;;;;21.43;54.39;99939.55;111214;1261;18691;-30
2023/12/30 08:55:30;;;;;;;;;3.00;3.00;;;;;21.45;54.29;99943.55;111250;1269;20722;-31
2023/12/30 08:57:58;;;;;;;;;1.00;1.00;;;;;21.53;54.09;99944.86;111103;1254;20826;-30
2023/12/30 09:00:25;;;;;;;;;1.00;1.00;;;;;21.46;54.20;99955.60;111232;1262;19873;-30
2023/12/30 09:02:55;;;;;;;;;3.00;1.00;;;;;21.46;54.44;99956.35;111114;1256;20699;-29
2023/12/30 09:05:22;;;;;;;;;1.00;1.00;;;;;21.41;54.86;99964.22;111090;1262;19442;-30
2023/12/30 09:07:49;;;;;;;;;1.00;1.00;;;;;21.42;54.68;99967.41;111381;1254;20077;-30
2023/12/30 09:10:17;;;;;;;;;1.00;1.00;;;;;21.40;54.26;99967.34;111174;1269;19419;-30
2023/12/30 09:12:44;;;;;;;;;1.00;1.00;;;;;21.34;54.39;99967.95;111450;1254;20062;-30
2023/12/30 09:15:11;;;;;;;;;1.00;1.00;;;;;21.33;54.35;99971.29;111151;1254;21335;-30
2023/12/30 09:17:39;;;;;;;;;1.00;1.00;;;;;21.31;54.58;99978.89;111520;1254;20846;-30
2023/12/30 09:20:06;;;;;;;;;1.00;1.00;;;;;21.27;54.72;99980.25;111112;1254;19620;-30
2023/12/30 09:22:34;;;;;;;;;1.00;1.00;;;;;21.28;54.66;99982.73;111027;1254;21267;-30
2023/12/30 09:25:01;;;;;;;;;1.00;1.00;;;;;21.31;54.24;99977.63;111112;1254;20820;-30
2023/12/30 09:27:29;;;;;;;;;1.00;1.00;;;;;21.34;54.07;99981.52;111467;1269;19579;-31
2023/12/30 09:29:56;;;;;;;;;1.00;1.00;;;;;21.40;53.49;99979.42;111116;1269;18621;-31
2023/12/30 09:32:23;;;;;;;;;3.00;3.00;;;;;21.44;52.99;99984.73;111057;1256;20825;-30
2023/12/30 09:34:51;;;;;;;;;1.00;1.00;;;;;21.46;52.16;99987.84;111166;1254;19657;-30
2023/12/30 09:37:19;;;;;;;;;3.67;3.67;;;;;21.43;51.46;99989.15;111080;1269;20051;-30
2023/12/30 09:39:47;;;;;;;;;4.00;3.50;;;;;21.30;50.59;99994.55;111075;1269;20768;-30
2023/12/30 09:42:14;;;;;;;;;3.00;3.00;;;;;21.22;50.04;99992.67;111072;1269;18159;-30
2023/12/30 09:44:41;;;;;;;;;3.00;3.00;;;;;21.16;50.01;99995.77;111135;1261;18794;-30
2023/12/30 09:47:10;;;;;;;;;3.00;3.00;;;;;21.11;49.41;99998.61;111150;1269;20673;-30
2023/12/30 09:49:37;;;;;;;;;3.00;3.00;;;;;21.08;49.15;100002.62;111046;1254;19702;-30
2023/12/30 09:52:06;;;;;;;;;6.00;4.00;;;;;21.06;48.72;99999.00;111098;1269;20307;-30
2023/12/30 09:54:33;;;;;;;;;4.00;4.00;;;;;21.01;48.26;100002.15;111100;1269;19570;-30
2023/12/30 09:57:01;;;;;;;;;3.00;1.00;;;;;21.01;47.20;100001.02;111226;1261;18908;-30
2023/12/30 09:59:29;;;;;;;;;1.00;1.00;;;;;20.98;46.75;100000.83;111053;1269;19998;-30
2023/12/30 10:01:56;;;;;;;;;3.00;3.00;;;;;20.96;46.26;100000.04;111143;1254;21998;-30
2023/12/30 10:04:24;;;;;;;;;1.00;1.00;;;;;20.95;45.51;100005.23;111211;1269;18312;-30
2023/12/30 10:06:51;;;;;;;;;3.00;3.00;;;;;20.95;45.29;100010.83;111199;1254;20157;-30
2023/12/30 10:09:19;;;;;;;;;4.00;4.00;;;;;20.96;45.08;100012.89;111091;1254;21932;-30
2023/12/30 10:11:46;;;;;;;;;1.00;1.00;;;;;20.94;44.77;100013.46;111214;1254;19739;-29
2023/12/30 10:14:13;;;;;;;;;3.00;2.00;;;;;20.93;44.70;100016.20;111351;1269;18518;-31
2023/12/30 10:16:41;;;;;;;;;3.00;3.00;;;;;20.91;44.29;100016.31;111197;1254;22098;-30
2023/12/30 10:19:08;;;;;;;;;3.00;3.00;;;;;20.88;44.05;100015.52;111106;1269;18200;-30
2023/12/30 10:21:35;;;;;;;;;1.00;1.00;;;;;20.87;43.88;100018.15;111134;1263;20384;-30
2023/12/30 10:24:04;;;;;;;;;3.00;3.00;;;;;20.85;43.60;100012.20;111103;1254;20781;-30
2023/12/30 10:26:31;;;;;;;;;3.00;3.00;;;;;20.84;43.67;100012.36;111145;1263;19582;-31
2023/12/30 10:28:58;;;;;;;;;3.50;3.00;;;;;20.83;43.50;100017.00;111475;1269;18641;-31
2023/12/30 10:31:26;;;;;;;;;3.00;3.00;;;;;20.81;43.37;100020.19;111129;1269;19421;-30
2023/12/30 10:33:53;;;;;;;;;3.00;1.00;;;;;20.81;43.20;100021.62;111053;1269;19762;-30
2023/12/30 10:36:20;;;;;;;;;3.50;3.50;;;;;20.79;43.17;100018.16;111238;1256;20138;-30
2023/12/30 10:38:48;;;;;;;;;3.00;3.00;;;;;20.79;42.72;100017.17;111127;1254;21956;-30
2023/12/30 10:41:15;;;;;;;;;3.00;3.00;;;;;20.78;42.43;100022.86;111299;1261;18257;-30
2023/12/30 10:43:42;;;;;;;;;3.00;3.00;;;;;20.78;42.54;100027.42;111217;1261;18667;-30
2023/12/30 10:46:10;;;;;;;;;3.00;3.00;;;;;20.92;42.45;100029.43;111384;1254;20869;-30
2023/12/30 10:48:37;;;;;;;;;3.00;3.00;;;;;20.99;42.86;100035.18;111120;1269;18947;-30
2023/12/30 10:51:04;;;;;;;;;4.00;4.00;;;;;21.09;43.35;100034.42;111563;1254;20100;-30
2023/12/30 10:53:32;;;;;;;;;3.00;3.00;;;;;21.13;44.64;100035.23;111333;1254;20873;-30
2023/12/30 10:55:59;;;;;;;;;3.00;3.00;;;;;21.19;45.01;100043.66;111438;1263;19529;-30
2023/12/30 10:58:27;;;;;;;;;1.00;1.00;;;;;21.21;46.19;100046.33;111098;1269;18651;-31
2023/12/30 11:00:54;;;;;;;;;3.00;3.00;;;;;21.21;47.22;100055.36;111360;1254;20665;-30
2023/12/30 11:03:21;;;;;;;;;4.00;3.00;;;;;21.18;47.82;100069.73;111107;1262;18222;-30
2023/12/30 11:05:49;;;;;;;;;3.00;3.00;;;;;21.16;48.69;100078.19;111025;1269;19025;-30
2023/12/30 11:08:17;;;;;;;;;3.00;3.00;;;;;21.19;49.30;100083.71;111175;1269;19694;-30
2023/12/30 11:10:45;;;;;;;;;3.00;3.00;;;;;21.24;48.81;100078.23;111408;1269;18224;-31
2023/12/30 11:13:12;;;;;;;;;1.00;1.00;;;;;21.27;49.28;100083.16;111114;1269;18960;-30
2023/12/30 11:15:41;;;;;;;;;1.00;1.00;;;;;21.23;49.75;100087.66;111220;1254;20793;-30
2023/12/30 11:18:08;;;;;;;;;1.00;1.00;;;;;21.23;50.05;100086.14;111076;1269;18293;-30
2023/12/30 11:20:36;;;;;;;;;1.00;1.00;;;;;21.21;50.19;100086.75;111318;1254;20074;-31
2023/12/30 11:23:03;;;;;;;;;3.00;3.00;;;;;21.20;50.46;100087.95;111014;1254;21075;-31
2023/12/30 11:25:30;;;;;;;;;1.00;1.00;;;;;21.21;50.78;100090.93;111314;1256;19632;-30